Votorantim, Brazil
Current Conditions -  °F | °C
As of 1:00 PM on Monday 22 Dec 2014 (Local Time) from SBKP Reporting Station
Broken Clouds Broken Clouds  
Wind Chill: 81°   Ceiling: 2800
Heat Index: 84°   Visibility: 6mi
Dew Point: 70°   Wind: 12mph
Humidity: 70%   Direction: 340°NNW
Pressure: 29.97"   Gusts: NA
Location:  23.55°S, 47.43°W
Report Text: SBKP 221500Z 34010KT 9999 BKN028 BKN100 27/21 Q1015
Loading
Personal Weather Stations






























Interactive Weather Map New forecast layout! Learn more

10-Day Weather Forecast

Advertisements
Track Severe Weather on mobile